Time;durP1;ratioP1;P1;durP2;ratioP2;P2;SDS_P1;SDS_P2;PMS_P1;PMS_P2;Temp;Humidity;BMP_temperature;BMP_pressure;BME280_temperature;BME280_humidity;BME280_pressure;Samples;Min_cycle;Max_cycle;Signal;HPM_P1;HPM_P2
2021/04/15 00:01:30;;;;;;;9.50;6.70;;;0.80;99.90;;;;;;5028406;28;20443;-75
2021/04/15 00:03:57;;;;;;;11.43;6.77;;;0.80;99.90;;;;;;5028283;28;20531;-75
2021/04/15 00:06:26;;;;;;;9.07;7.33;;;0.70;99.90;;;;;;5028310;28;20478;-75
2021/04/15 00:08:54;;;;;;;8.50;6.47;;;0.70;99.90;;;;;;5027938;28;20932;-75
2021/04/15 00:11:25;;;;;;;11.90;6.33;;;0.70;99.90;;;;;;5028046;28;20495;-75
2021/04/15 00:13:54;;;;;;;8.27;6.63;;;0.80;99.90;;;;;;5028007;28;20463;-75
2021/04/15 00:16:23;;;;;;;16.40;8.00;;;0.70;99.90;;;;;;5028324;28;20435;-76
2021/04/15 00:18:50;;;;;;;7.90;7.10;;;0.70;99.90;;;;;;5029406;28;20456;-75
2021/04/15 00:21:18;;;;;;;8.47;7.43;;;0.60;99.90;;;;;;5035853;28;20443;-75
2021/04/15 00:23:45;;;;;;;11.30;7.53;;;0.60;99.90;;;;;;5047593;28;20487;-75
2021/04/15 00:26:14;;;;;;;12.00;7.43;;;0.50;99.90;;;;;;5040019;28;20508;-75
2021/04/15 00:28:41;;;;;;;8.50;6.63;;;0.50;99.90;;;;;;5027989;28;20434;-75
2021/04/15 00:31:09;;;;;;;8.70;6.87;;;0.40;99.90;;;;;;5028206;28;20534;-75
2021/04/15 00:33:36;;;;;;;8.17;6.93;;;0.40;99.90;;;;;;5037803;27;20475;-75
2021/04/15 00:36:05;;;;;;;9.10;7.03;;;0.50;99.90;;;;;;5047856;28;20438;-75
2021/04/15 00:38:32;;;;;;;8.10;6.53;;;0.50;99.90;;;;;;5047654;28;20431;-75
2021/04/15 00:41:00;;;;;;;8.50;6.77;;;0.50;99.90;;;;;;5047263;28;20452;-75
2021/04/15 00:43:29;;;;;;;15.37;7.00;;;0.50;99.90;;;;;;5047566;28;20439;-75
2021/04/15 00:45:57;;;;;;;7.73;5.73;;;0.50;99.90;;;;;;5047668;28;20542;-75
2021/04/15 00:48:35;;;;;;;11.87;6.00;;;0.50;99.90;;;;;;5047972;28;21135;-75
2021/04/15 00:51:08;;;;;;;7.43;5.57;;;0.60;99.90;;;;;;5050231;28;20510;-75
2021/04/15 00:53:39;;;;;;;7.80;6.03;;;0.60;99.90;;;;;;5051646;28;20578;-75
2021/04/15 00:56:11;;;;;;;9.67;6.87;;;0.60;99.90;;;;;;5051239;28;20491;-75
2021/04/15 00:58:38;;;;;;;8.87;6.07;;;0.60;99.90;;;;;;5051348;28;20447;-75
2021/04/15 01:01:09;;;;;;;7.60;6.30;;;0.60;99.90;;;;;;5052072;27;20931;-75
2021/04/15 01:03:38;;;;;;;10.00;6.33;;;0.60;99.90;;;;;;5050771;28;20857;-75
2021/04/15 01:06:05;;;;;;;12.23;7.10;;;0.60;99.90;;;;;;5050723;28;20467;-75
2021/04/15 01:08:32;;;;;;;8.33;6.20;;;0.50;99.90;;;;;;5051110;28;20427;-75
2021/04/15 01:11:07;;;;;;;12.67;6.90;;;0.50;99.90;;;;;;5050642;28;20479;-75
2021/04/15 01:13:47;;;;;;;10.60;5.67;;;0.50;99.90;;;;;;5050750;28;20458;-75
2021/04/15 01:16:22;;;;;;;15.67;7.83;;;0.50;99.90;;;;;;5051089;28;20441;-75
2021/04/15 01:18:57;;;;;;;9.47;6.33;;;0.40;99.90;;;;;;5041890;28;20530;-75
2021/04/15 01:22:00;;;;;;;7.13;6.10;;;0.40;99.90;;;;;;5035133;28;20439;-75
2021/04/15 01:24:33;;;;;;;8.37;5.63;;;0.30;99.90;;;;;;5053902;28;20451;-75
2021/04/15 01:27:42;;;;;;;8.80;6.07;;;0.30;99.90;;;;;;5030626;28;20483;-75
2021/04/15 01:30:20;;;;;;;9.77;6.30;;;0.30;99.90;;;;;;5045399;28;20444;-75
2021/04/15 01:32:57;;;;;;;8.07;6.60;;;0.20;99.90;;;;;;5030395;28;20998;-76
2021/04/15 01:35:28;;;;;;;11.83;6.57;;;0.20;99.90;;;;;;5030744;28;20530;-75
2021/04/15 01:38:04;;;;;;;11.43;7.30;;;0.10;99.90;;;;;;5030617;28;20449;-75
2021/04/15 01:40:35;;;;;;;7.90;6.20;;;0.10;99.90;;;;;;5042850;27;20528;-75
2021/04/15 01:43:10;;;;;;;9.20;6.50;;;0.00;99.90;;;;;;5050384;28;20455;-75
2021/04/15 01:45:39;;;;;;;8.67;6.33;;;0.00;99.90;;;;;;5050288;28;20494;-75
2021/04/15 01:48:08;;;;;;;6.30;5.50;;;-0.10;99.90;;;;;;5050516;28;20446;-75
2021/04/15 01:50:39;;;;;;;12.77;7.70;;;-0.20;99.90;;;;;;5050251;28;20427;-75
2021/04/15 01:53:09;;;;;;;9.20;7.10;;;-0.10;99.90;;;;;;5050641;28;20459;-75
2021/04/15 01:55:42;;;;;;;7.80;6.93;;;-0.20;99.90;;;;;;5042121;27;20763;-75
2021/04/15 01:58:15;;;;;;;9.03;6.80;;;-0.20;99.90;;;;;;5030189;28;20447;-75
2021/04/15 02:00:45;;;;;;;8.07;6.40;;;-0.20;99.90;;;;;;5029779;28;20837;-75
2021/04/15 02:03:16;;;;;;;9.73;6.90;;;-0.20;99.90;;;;;;5030032;28;20463;-75
2021/04/15 02:05:45;;;;;;;9.70;7.93;;;-0.10;99.90;;;;;;5030605;28;20474;-75
2021/04/15 02:08:17;;;;;;;6.37;5.70;;;-0.20;99.90;;;;;;5030255;28;20948;-75
2021/04/15 02:10:46;;;;;;;6.90;5.47;;;-0.20;99.90;;;;;;5029666;28;20434;-75
2021/04/15 02:13:16;;;;;;;10.47;6.50;;;-0.10;99.90;;;;;;5030077;28;20789;-75
2021/04/15 02:15:47;;;;;;;6.97;5.40;;;-0.20;99.90;;;;;;5029913;28;20424;-76
2021/04/15 02:18:22;;;;;;;6.23;5.03;;;-0.20;99.90;;;;;;5030100;28;20784;-75
2021/04/15 02:20:51;;;;;;;7.63;6.07;;;-0.20;99.90;;;;;;5045475;28;20445;-76
2021/04/15 02:23:24;;;;;;;8.77;5.50;;;-0.30;99.90;;;;;;5031147;28;21146;-75
2021/04/15 02:25:56;;;;;;;9.00;7.00;;;-0.30;99.90;;;;;;5039535;28;20488;-74
2021/04/15 02:28:29;;;;;;;8.60;5.53;;;-0.30;99.90;;;;;;5049863;28;20415;-75
2021/04/15 02:31:04;;;;;;;8.37;5.93;;;-0.30;99.90;;;;;;5049632;28;20423;-75
2021/04/15 02:33:35;;;;;;;8.63;6.00;;;-0.40;99.90;;;;;;5049604;28;20458;-75
2021/04/15 02:36:04;;;;;;;9.20;6.43;;;-0.40;99.90;;;;;;5049592;28;20474;-75
2021/04/15 02:38:35;;;;;;;8.73;7.17;;;-0.40;99.90;;;;;;5049390;27;20494;-76
2021/04/15 02:41:05;;;;;;;6.87;5.37;;;-0.40;99.90;;;;;;5029469;28;20448;-74
2021/04/15 02:43:39;;;;;;;7.77;5.70;;;-0.40;99.90;;;;;;5029647;28;20455;-74
2021/04/15 02:46:11;;;;;;;9.30;5.20;;;-0.40;99.90;;;;;;5029517;28;20475;-74
2021/04/15 02:48:41;;;;;;;8.97;6.50;;;-0.40;99.90;;;;;;5029562;28;20435;-75
2021/04/15 02:51:13;;;;;;;8.33;4.77;;;-0.50;99.90;;;;;;5044849;27;20943;-74
2021/04/15 02:53:45;;;;;;;6.80;5.37;;;-0.50;99.90;;;;;;5049167;28;20470;-74
2021/04/15 02:56:19;;;;;;;6.73;5.20;;;-0.50;99.90;;;;;;5049183;28;20452;-74
2021/04/15 02:58:51;;;;;;;11.13;5.53;;;-0.50;99.90;;;;;;5049092;28;20410;-74
2021/04/15 03:01:23;;;;;;;8.27;5.33;;;-0.50;99.90;;;;;;5049308;28;20941;-74
2021/04/15 03:03:53;;;;;;;6.50;4.77;;;-0.40;99.90;;;;;;5049189;28;20797;-75
2021/04/15 03:06:24;;;;;;;10.37;5.03;;;-0.40;99.90;;;;;;5049046;28;20607;-75
2021/04/15 03:08:55;;;;;;;6.40;4.97;;;-0.40;99.90;;;;;;5047903;28;20486;-75
2021/04/15 03:11:26;;;;;;;6.03;4.57;;;-0.50;99.90;;;;;;5049499;28;20427;-74
2021/04/15 03:13:56;;;;;;;6.73;5.03;;;-0.50;99.90;;;;;;5048256;28;20446;-74
2021/04/15 03:16:26;;;;;;;5.30;4.33;;;-0.60;99.90;;;;;;5049075;28;20439;-74
2021/04/15 03:18:58;;;;;;;7.40;4.87;;;-0.50;99.90;;;;;;5049397;28;20514;-75
2021/04/15 03:21:31;;;;;;;8.27;5.10;;;-0.50;99.90;;;;;;5048747;28;20493;-74
2021/04/15 03:24:03;;;;;;;5.13;4.43;;;-0.60;99.90;;;;;;5030446;28;20487;-74
2021/04/15 03:26:37;;;;;;;8.63;4.57;;;-0.60;99.90;;;;;;5028829;28;20468;-75
2021/04/15 03:29:22;;;;;;;5.20;4.70;;;-0.60;99.90;;;;;;5028766;28;20432;-75
2021/04/15 03:32:08;;;;;;;4.93;3.67;;;-0.60;99.90;;;;;;5028986;28;20439;-75
2021/04/15 03:34:40;;;;;;;9.00;5.23;;;-0.60;99.90;;;;;;5028576;28;20448;-75
2021/04/15 03:37:11;;;;;;;6.27;4.50;;;-0.70;99.90;;;;;;5028886;28;20412;-74
2021/04/15 03:39:38;;;;;;;7.87;4.80;;;-0.70;99.90;;;;;;5042152;27;20431;-75
2021/04/15 03:42:18;;;;;;;8.00;4.40;;;-0.70;99.90;;;;;;5048436;28;20457;-74
2021/04/15 03:44:49;;;;;;;5.00;4.40;;;-0.70;99.90;;;;;;5048651;28;20517;-74
2021/04/15 03:47:20;;;;;;;9.63;4.10;;;-0.80;99.90;;;;;;5048940;28;20563;-74
2021/04/15 03:49:53;;;;;;;4.70;4.20;;;-0.80;99.90;;;;;;5048111;28;20441;-74
2021/04/15 03:52:23;;;;;;;5.30;3.80;;;-0.80;99.90;;;;;;5048302;28;20603;-74
2021/04/15 03:54:54;;;;;;;6.50;3.77;;;-0.80;99.90;;;;;;5048197;28;20804;-74
2021/04/15 03:57:23;;;;;;;10.07;4.13;;;-0.80;99.90;;;;;;5048642;28;20896;-74
2021/04/15 03:59:58;;;;;;;5.67;3.80;;;-0.90;99.90;;;;;;5048143;28;21186;-75
2021/04/15 04:02:32;;;;;;;6.77;3.77;;;-0.90;99.90;;;;;;5048110;28;20473;-75
2021/04/15 04:05:03;;;;;;;5.60;3.93;;;-0.90;99.90;;;;;;5048176;28;20437;-74
2021/04/15 04:07:35;;;;;;;5.67;3.80;;;-0.90;99.90;;;;;;5048218;27;20474;-74
2021/04/15 04:10:07;;;;;;;7.43;4.30;;;-0.90;99.90;;;;;;5047877;28;20509;-75
2021/04/15 04:12:40;;;;;;;6.20;4.10;;;-0.90;99.90;;;;;;5048016;28;20515;-74
2021/04/15 04:15:12;;;;;;;4.10;3.70;;;-1.00;99.90;;;;;;5048317;28;20479;-74
2021/04/15 04:17:45;;;;;;;7.10;3.80;;;-0.90;99.90;;;;;;5039512;27;20961;-75
2021/04/15 04:20:13;;;;;;;6.33;4.10;;;-0.90;99.90;;;;;;5047861;28;20427;-74
2021/04/15 04:22:48;;;;;;;7.03;3.93;;;-1.00;99.90;;;;;;5047645;28;20530;-74
2021/04/15 04:25:24;;;;;;;8.63;3.93;;;-1.00;99.90;;;;;;5047741;28;20460;-74
2021/04/15 04:27:57;;;;;;;6.00;3.20;;;-0.90;99.90;;;;;;5048015;28;20453;-74
2021/04/15 04:30:27;;;;;;;6.27;4.33;;;-1.00;99.90;;;;;;5047519;28;20977;-73
2021/04/15 04:32:59;;;;;;;4.50;3.40;;;-1.00;99.90;;;;;;5047718;28;20459;-74
2021/04/15 04:35:29;;;;;;;5.23;3.70;;;-1.00;99.90;;;;;;5047755;28;20530;-74
2021/04/15 04:38:06;;;;;;;6.30;3.60;;;-1.00;99.90;;;;;;5047677;28;20510;-74
2021/04/15 04:40:36;;;;;;;6.87;4.13;;;-1.00;99.90;;;;;;5047412;28;20442;-74
2021/04/15 04:43:09;;;;;;;11.73;4.20;;;-1.00;99.90;;;;;;5047714;28;20494;-74
2021/04/15 04:45:36;;;;;;;9.93;4.60;;;-1.00;99.90;;;;;;5047608;28;20962;-75
2021/04/15 04:48:09;;;;;;;4.70;3.80;;;-1.00;99.90;;;;;;5047799;28;20451;-74
2021/04/15 04:50:44;;;;;;;6.63;4.10;;;-0.90;99.90;;;;;;5047614;28;20427;-75
2021/04/15 04:53:14;;;;;;;7.87;4.23;;;-1.00;99.90;;;;;;5047076;28;20973;-68
2021/04/15 04:55:44;;;;;;;5.53;3.40;;;-0.90;99.90;;;;;;5047433;28;20516;-68
2021/04/15 04:58:18;;;;;;;6.47;5.50;;;-0.80;99.90;;;;;;5047647;28;20431;-67
2021/04/15 05:00:46;;;;;;;10.67;8.90;;;-0.80;99.90;;;;;;5047234;28;20423;-67
2021/04/15 05:03:19;;;;;;;7.50;5.03;;;-0.70;99.90;;;;;;5047267;28;20519;-67
2021/04/15 05:05:47;;;;;;;7.37;4.23;;;-0.70;99.90;;;;;;5047729;28;20748;-67
2021/04/15 05:08:20;;;;;;;4.80;4.20;;;-0.70;99.90;;;;;;5047951;28;20799;-68
2021/04/15 05:10:50;;;;;;;6.07;4.53;;;-0.70;99.90;;;;;;5047092;28;20427;-67
2021/04/15 05:13:20;;;;;;;6.10;4.27;;;-0.60;99.90;;;;;;5047226;28;20449;-66
2021/04/15 05:15:47;;;;;;;8.63;4.10;;;-0.60;99.90;;;;;;5047181;28;20439;-67
2021/04/15 05:18:17;;;;;;;7.97;4.57;;;-0.50;99.90;;;;;;5039695;27;20453;-66
2021/04/15 05:20:45;;;;;;;6.60;3.90;;;-0.50;99.90;;;;;;5037952;27;20843;-66
2021/04/15 05:23:19;;;;;;;4.27;3.87;;;-0.50;99.90;;;;;;5043080;28;20457;-67
2021/04/15 05:26:10;;;;;;;5.30;3.47;;;-0.50;99.90;;;;;;5047092;28;20469;-67
2021/04/15 05:28:39;;;;;;;4.33;3.30;;;-0.50;99.90;;;;;;5046985;28;20965;-66
2021/04/15 05:31:10;;;;;;;6.50;4.40;;;-0.50;99.90;;;;;;5046918;28;20430;-66
2021/04/15 05:33:38;;;;;;;8.03;4.10;;;-0.50;99.90;;;;;;5047064;28;20466;-67
2021/04/15 05:36:11;;;;;;;7.67;4.80;;;-0.50;99.90;;;;;;5047997;28;20434;-67
2021/04/15 05:38:43;;;;;;;5.80;3.60;;;-0.50;99.90;;;;;;5050007;28;20441;-66
2021/04/15 05:41:18;;;;;;;15.13;11.13;;;-0.40;99.90;;;;;;5050207;28;20442;-66
2021/04/15 05:43:48;;;;;;;9.70;6.17;;;-0.50;99.90;;;;;;5050293;27;20442;-66
2021/04/15 05:46:19;;;;;;;17.97;5.40;;;-0.40;99.90;;;;;;5050364;28;21002;-67
2021/04/15 05:48:47;;;;;;;6.10;3.90;;;-0.30;99.90;;;;;;5030273;28;20936;-66
2021/04/15 05:51:20;;;;;;;10.07;5.73;;;-0.30;99.90;;;;;;5030182;28;20440;-66
2021/04/15 05:53:51;;;;;;;6.43;5.07;;;-0.30;99.90;;;;;;5030025;28;20535;-66
2021/04/15 05:56:21;;;;;;;5.17;3.90;;;-0.20;99.90;;;;;;5030313;28;20431;-67
2021/04/15 05:58:56;;;;;;;5.27;3.93;;;-0.10;99.90;;;;;;5029988;28;20434;-67
2021/04/15 06:01:32;;;;;;;10.97;6.70;;;-0.10;99.90;;;;;;5030175;28;20950;-66
2021/04/15 06:04:07;;;;;;;7.70;4.60;;;0.00;99.90;;;;;;5030034;28;20450;-66
2021/04/15 06:06:38;;;;;;;8.67;5.90;;;0.00;99.90;;;;;;5029925;28;20467;-66
2021/04/15 06:09:07;;;;;;;4.33;3.83;;;0.00;99.90;;;;;;5029801;28;20936;-66
2021/04/15 06:11:51;;;;;;;6.80;4.40;;;0.10;99.90;;;;;;5029927;28;20928;-67
2021/04/15 06:14:27;;;;;;;6.60;5.43;;;0.10;99.90;;;;;;5029949;28;20484;-66
2021/04/15 06:17:12;;;;;;;7.57;4.93;;;0.20;99.90;;;;;;5034475;28;20458;-66
2021/04/15 06:19:40;;;;;;;26.23;12.73;;;0.30;99.90;;;;;;5049594;28;20422;-67
2021/04/15 06:22:12;;;;;;;14.10;6.40;;;0.40;99.90;;;;;;5049572;28;20469;-67
2021/04/15 06:24:42;;;;;;;8.63;5.20;;;0.40;99.90;;;;;;5049472;28;20443;-67
2021/04/15 06:27:09;;;;;;;9.90;4.83;;;0.40;99.90;;;;;;5043234;27;20479;-66
2021/04/15 06:29:42;;;;;;;11.23;6.20;;;0.40;99.90;;;;;;5031932;28;20911;-66
2021/04/15 06:32:15;;;;;;;10.27;5.00;;;0.50;99.90;;;;;;5037883;28;20472;-67
2021/04/15 06:34:42;;;;;;;6.03;4.23;;;0.50;99.90;;;;;;5049464;28;20454;-67
2021/04/15 06:37:15;;;;;;;7.20;4.87;;;0.60;99.90;;;;;;5049434;28;20510;-67
2021/04/15 06:39:46;;;;;;;24.97;7.77;;;0.70;99.90;;;;;;5049406;28;20795;-67
2021/04/15 06:42:45;;;;;;;6.43;4.40;;;0.60;99.90;;;;;;5049341;28;20460;-66
2021/04/15 06:45:39;;;;;;;12.50;5.00;;;0.80;99.90;;;;;;5027133;27;20520;-67
2021/04/15 06:48:25;;;;;;;34.90;15.07;;;0.90;99.90;;;;;;5022109;28;20443;-66
2021/04/15 06:51:32;;;;;;;17.67;7.20;;;0.90;99.90;;;;;;5029186;28;20954;-67
2021/04/15 06:54:28;;;;;;;24.23;8.97;;;1.00;99.90;;;;;;5015006;27;20543;-67
2021/04/15 06:57:20;;;;;;;14.20;7.13;;;1.10;99.90;;;;;;5029395;28;20939;-66
2021/04/15 07:00:06;;;;;;;33.17;13.97;;;1.20;99.90;;;;;;5028892;28;20435;-66
2021/04/15 07:03:08;;;;;;;25.13;12.40;;;1.40;99.90;;;;;;5029560;28;20520;-66
2021/04/15 07:05:43;;;;;;;13.47;6.97;;;1.50;99.90;;;;;;5029290;28;21007;-67
2021/04/15 07:08:24;;;;;;;10.20;6.10;;;1.60;99.90;;;;;;5029175;28;20443;-67
2021/04/15 07:11:02;;;;;;;5.30;4.70;;;1.70;99.90;;;;;;5028810;28;21153;-66
2021/04/15 07:13:50;;;;;;;6.50;4.93;;;1.80;99.90;;;;;;5029449;27;20480;-66
2021/04/15 07:16:52;;;;;;;8.63;5.80;;;1.70;99.90;;;;;;5028206;28;20774;-67
2021/04/15 07:20:00;;;;;;;12.40;8.10;;;1.80;99.90;;;;;;5028652;28;20487;-67
2021/04/15 07:22:52;;;;;;;10.87;8.17;;;1.90;99.90;;;;;;5028831;28;20436;-66
2021/04/15 07:25:45;;;;;;;6.33;4.40;;;2.00;99.90;;;;;;5028753;28;20432;-67
2021/04/15 07:28:38;;;;;;;7.27;5.20;;;2.10;99.90;;;;;;5028339;27;20447;-66
2021/04/15 07:31:33;;;;;;;8.00;4.63;;;2.20;99.90;;;;;;5028816;28;20479;-66
2021/04/15 07:34:35;;;;;;;4.10;3.60;;;2.20;99.90;;;;;;5029610;27;20468;-67
2021/04/15 07:37:16;;;;;;;8.30;5.07;;;2.30;99.90;;;;;;5009718;28;20496;-66
2021/04/15 07:40:14;;;;;;;8.87;5.37;;;2.40;99.90;;;;;;5028822;28;20451;-67
2021/04/15 07:42:55;;;;;;;7.37;4.40;;;2.40;99.90;;;;;;5038230;28;20475;-67
2021/04/15 07:45:28;;;;;;;9.83;4.60;;;2.50;99.90;;;;;;5029675;27;20436;-66
2021/04/15 07:48:33;;;;;;;7.07;4.97;;;2.60;99.90;;;;;;5028094;28;20579;-67
2021/04/15 07:51:42;;;;;;;4.93;4.23;;;2.70;99.90;;;;;;5028531;28;20535;-66
2021/04/15 07:54:37;;;;;;;5.73;4.33;;;3.00;99.90;;;;;;5028501;28;20819;-67
2021/04/15 07:57:36;;;;;;;10.10;5.83;;;3.00;99.90;;;;;;5028340;28;20436;-67
2021/04/15 08:00:23;;;;;;;5.80;4.53;;;3.20;99.90;;;;;;5027730;28;20435;-66
2021/04/15 08:03:22;;;;;;;10.70;5.73;;;3.30;99.90;;;;;;5028034;28;20787;-67
2021/04/15 08:06:17;;;;;;;10.40;6.23;;;3.50;99.90;;;;;;5028461;28;20416;-67
2021/04/15 08:09:14;;;;;;;16.53;12.63;;;3.70;99.90;;;;;;5015253;28;20463;-66
2021/04/15 08:11:48;;;;;;;7.20;5.60;;;3.90;99.90;;;;;;5028233;28;20858;-66
2021/04/15 08:14:57;;;;;;;9.00;5.13;;;4.10;99.90;;;;;;5028196;28;20815;-66
2021/04/15 08:18:02;;;;;;;6.70;5.40;;;4.10;99.90;;;;;;5011190;28;20796;-67
2021/04/15 08:20:53;;;;;;;12.13;7.00;;;4.20;99.90;;;;;;5015137;28;20455;-66
2021/04/15 08:23:50;;;;;;;5.47;4.70;;;3.90;99.90;;;;;;5027990;28;20446;-66
2021/04/15 08:26:40;;;;;;;6.23;4.90;;;3.80;99.90;;;;;;5028191;28;20587;-67
2021/04/15 08:29:28;;;;;;;9.03;5.23;;;3.90;99.90;;;;;;5016068;28;20451;-67
2021/04/15 08:32:08;;;;;;;8.70;4.60;;;4.20;99.90;;;;;;5027689;28;20451;-67
2021/04/15 08:34:46;;;;;;;10.10;4.33;;;4.50;99.90;;;;;;5027816;28;20435;-67
2021/04/15 08:37:31;;;;;;;9.00;5.63;;;4.90;99.90;;;;;;5028263;28;20434;-67
2021/04/15 08:40:11;;;;;;;4.90;4.40;;;5.20;99.90;;;;;;5027656;28;20428;-66
2021/04/15 08:42:50;;;;;;;7.43;5.20;;;5.30;99.90;;;;;;5027739;28;20443;-67
2021/04/15 08:45:28;;;;;;;9.27;6.70;;;5.20;99.90;;;;;;5028851;27;20823;-67
2021/04/15 08:48:08;;;;;;;7.93;5.07;;;5.30;99.90;;;;;;5027514;28;20498;-68
2021/04/15 08:50:49;;;;;;;6.07;4.90;;;5.10;99.90;;;;;;5027674;28;20438;-67
2021/04/15 08:53:48;;;;;;;4.80;4.13;;;5.10;99.90;;;;;;5033338;28;20971;-67
2021/04/15 08:56:21;;;;;;;5.07;4.30;;;4.90;99.90;;;;;;5022072;28;20462;-67
2021/04/15 08:59:09;;;;;;;9.53;4.20;;;5.00;99.90;;;;;;5027042;28;20421;-68
2021/04/15 09:01:46;;;;;;;7.43;4.23;;;5.30;99.90;;;;;;5027642;28;20438;-67
2021/04/15 09:04:17;;;;;;;5.60;4.53;;;5.60;99.90;;;;;;5027570;28;20439;-67
2021/04/15 09:06:51;;;;;;;7.90;4.43;;;5.40;99.90;;;;;;5027570;28;20591;-67
2021/04/15 09:09:30;;;;;;;4.93;4.53;;;5.20;99.90;;;;;;5027017;28;20507;-67
2021/04/15 09:12:17;;;;;;;8.63;4.57;;;4.90;99.90;;;;;;5029875;28;21016;-67
2021/04/15 09:15:00;;;;;;;6.07;4.50;;;4.70;99.90;;;;;;5041832;28;20466;-68
2021/04/15 09:17:33;;;;;;;8.17;3.90;;;4.90;99.90;;;;;;5050992;28;20449;-68
2021/04/15 09:20:06;;;;;;;9.10;5.00;;;5.30;99.90;;;;;;5050317;28;20519;-67
2021/04/15 09:23:05;;;;;;;4.87;3.83;;;5.40;99.90;;;;;;5050626;28;20451;-67
2021/04/15 09:25:42;;;;;;;8.87;4.73;;;5.60;99.90;;;;;;5050577;27;21147;-67
2021/04/15 09:28:13;;;;;;;6.70;4.23;;;5.80;99.90;;;;;;5050492;28;20431;-67
2021/04/15 09:30:53;;;;;;;4.20;3.80;;;6.00;99.90;;;;;;5050075;28;20933;-67
2021/04/15 09:33:31;;;;;;;6.40;3.70;;;6.20;99.90;;;;;;5050439;28;20462;-67
2021/04/15 09:36:17;;;;;;;4.10;3.57;;;6.00;99.90;;;;;;5050479;28;20933;-67
2021/04/15 09:39:12;;;;;;;4.43;4.03;;;5.80;99.90;;;;;;5050294;28;20430;-67
2021/04/15 09:42:13;;;;;;;4.60;4.20;;;6.00;99.90;;;;;;5050559;28;20429;-67
2021/04/15 09:45:18;;;;;;;6.20;3.77;;;6.40;99.90;;;;;;5031358;27;20458;-67
2021/04/15 09:47:57;;;;;;;4.40;3.50;;;6.30;99.90;;;;;;5020195;28;20802;-67
2021/04/15 09:50:27;;;;;;;5.00;3.83;;;6.20;99.90;;;;;;5030147;28;20447;-67
2021/04/15 09:53:08;;;;;;;5.73;4.20;;;6.40;99.90;;;;;;5030467;28;20488;-67
2021/04/15 09:55:58;;;;;;;5.20;3.80;;;6.50;99.90;;;;;;5030249;28;20424;-67
2021/04/15 09:58:31;;;;;;;5.10;4.13;;;6.60;99.90;;;;;;5030074;28;20420;-67
2021/04/15 10:01:02;;;;;;;5.80;4.33;;;6.50;99.90;;;;;;5029986;28;20488;-67
2021/04/15 10:03:43;;;;;;;3.83;3.43;;;6.20;99.90;;;;;;5029871;28;20460;-67
2021/04/15 10:06:24;;;;;;;3.77;3.03;;;6.10;99.90;;;;;;5030157;28;20979;-67
2021/04/15 10:09:21;;;;;;;6.27;3.40;;;6.60;99.90;;;;;;5029744;28;20444;-67
2021/04/15 10:12:06;;;;;;;6.47;3.40;;;7.10;99.90;;;;;;5029774;28;20440;-67
2021/04/15 10:14:49;;;;;;;4.73;3.53;;;7.60;99.90;;;;;;5029906;28;20428;-67
2021/04/15 10:17:38;;;;;;;5.17;3.60;;;7.60;99.90;;;;;;5030202;28;20468;-67
2021/04/15 10:20:34;;;;;;;4.70;3.60;;;7.40;99.30;;;;;;5048245;28;20451;-67
2021/04/15 10:23:20;;;;;;;3.70;3.00;;;7.10;99.90;;;;;;5049445;28;20523;-67
2021/04/15 10:25:56;;;;;;;3.67;3.30;;;7.00;99.90;;;;;;5049649;28;20964;-67
2021/04/15 10:28:49;;;;;;;6.73;3.60;;;6.70;99.90;;;;;;5049553;28;20443;-67
2021/04/15 10:31:41;;;;;;;9.07;3.60;;;6.40;97.20;;;;;;5049622;28;20541;-68
2021/04/15 10:34:43;;;;;;;6.47;4.13;;;6.30;98.50;;;;;;5049545;28;20444;-67
2021/04/15 10:37:44;;;;;;;4.33;3.90;;;6.30;98.10;;;;;;5023373;27;20431;-67
2021/04/15 10:40:44;;;;;;;4.93;4.00;;;6.20;97.80;;;;;;5029538;28;20443;-67
2021/04/15 10:43:53;;;;;;;4.60;3.93;;;6.20;99.60;;;;;;5049517;28;20552;-67
2021/04/15 10:46:44;;;;;;;6.43;4.13;;;6.30;99.70;;;;;;5049306;28;20474;-67
2021/04/15 10:49:43;;;;;;;4.93;3.63;;;6.40;99.80;;;;;;5049741;27;20439;-68
2021/04/15 10:52:25;;;;;;;6.20;4.53;;;6.60;98.50;;;;;;5040219;28;20469;-67
2021/04/15 10:55:10;;;;;;;5.90;3.80;;;7.00;99.20;;;;;;5029957;28;20460;-67
2021/04/15 10:57:37;;;;;;;5.60;4.60;;;7.50;99.90;;;;;;5029200;28;20438;-67
2021/04/15 11:00:25;;;;;;;6.60;4.10;;;8.00;99.90;;;;;;5029515;28;20436;-68
2021/04/15 11:02:57;;;;;;;5.27;3.87;;;8.50;99.90;;;;;;5029308;28;20449;-68
2021/04/15 11:05:29;;;;;;;11.10;4.37;;;8.60;97.90;;;;;;5029090;28;20442;-68
2021/04/15 11:08:06;;;;;;;4.73;4.20;;;8.80;96.20;;;;;;5029983;27;20467;-68
2021/04/15 11:10:35;;;;;;;8.50;4.87;;;9.00;97.60;;;;;;5029212;28;21057;-68
2021/04/15 11:13:09;;;;;;;4.50;4.10;;;9.30;96.80;;;;;;5028904;28;20462;-68
2021/04/15 11:15:45;;;;;;;4.70;3.70;;;9.50;97.90;;;;;;5029275;28;20931;-68
2021/04/15 11:18:17;;;;;;;5.50;3.77;;;9.30;96.10;;;;;;5046359;28;20467;-67
2021/04/15 11:20:45;;;;;;;4.57;3.30;;;9.00;94.70;;;;;;5048487;28;20430;-67
2021/04/15 11:23:32;;;;;;;3.83;3.33;;;8.70;94.10;;;;;;5048965;28;20836;-68
2021/04/15 11:26:19;;;;;;;7.57;3.40;;;8.30;94.00;;;;;;5048774;28;20777;-68
2021/04/15 11:28:50;;;;;;;5.70;4.87;;;7.90;94.50;;;;;;5048377;28;20445;-69
2021/04/15 11:31:32;;;;;;;5.20;4.63;;;7.50;95.50;;;;;;5048726;28;20446;-68
2021/04/15 11:34:23;;;;;;;7.30;5.17;;;7.30;96.70;;;;;;5047646;28;20472;-68
2021/04/15 11:37:05;;;;;;;6.83;4.17;;;7.60;97.30;;;;;;5040210;27;20529;-68
2021/04/15 11:39:36;;;;;;;5.00;3.80;;;7.90;96.10;;;;;;5027959;28;20850;-69
2021/04/15 11:42:07;;;;;;;3.67;3.30;;;8.20;96.30;;;;;;5028671;28;20473;-68
2021/04/15 11:44:39;;;;;;;7.60;5.13;;;8.30;93.40;;;;;;5028757;28;20987;-68
2021/04/15 11:47:15;;;;;;;5.17;3.73;;;8.40;91.90;;;;;;5028517;28;20478;-69
2021/04/15 11:49:48;;;;;;;5.03;3.60;;;8.30;91.50;;;;;;5028310;28;20500;-69
2021/04/15 11:52:31;;;;;;;3.73;3.40;;;8.40;91.60;;;;;;5033621;28;20805;-69
2021/04/15 11:55:14;;;;;;;4.40;3.80;;;8.60;86.60;;;;;;5045394;28;20438;-67
2021/04/15 11:57:45;;;;;;;3.77;3.47;;;8.70;84.20;;;;;;5028328;28;20430;-67
2021/04/15 12:00:20;;;;;;;3.30;2.83;;;8.70;85.20;;;;;;5028266;28;20442;-67
2021/04/15 12:03:01;;;;;;;2.67;2.47;;;9.00;84.00;;;;;;5028280;28;20466;-66
2021/04/15 12:05:37;;;;;;;3.27;2.60;;;9.00;80.00;;;;;;5028337;27;20510;-67
2021/04/15 12:08:18;;;;;;;3.83;3.53;;;9.00;85.00;;;;;;5046456;28;20489;-66
2021/04/15 12:10:59;;;;;;;3.40;3.10;;;9.00;88.50;;;;;;5047892;28;20440;-66
2021/04/15 12:13:33;;;;;;;5.73;3.40;;;8.60;84.90;;;;;;5044567;27;20471;-66
2021/04/15 12:16:12;;;;;;;3.60;3.27;;;8.30;83.10;;;;;;5028129;28;20444;-66
2021/04/15 12:18:47;;;;;;;3.57;3.27;;;8.00;79.80;;;;;;5027903;28;20433;-66
2021/04/15 12:21:25;;;;;;;2.90;2.70;;;7.60;81.80;;;;;;5027882;28;20929;-66
2021/04/15 12:23:57;;;;;;;3.83;3.47;;;7.50;83.70;;;;;;5027595;28;20864;-67
2021/04/15 12:26:27;;;;;;;8.17;3.53;;;7.30;85.30;;;;;;5029223;27;20477;-66
2021/04/15 12:29:02;;;;;;;4.37;3.20;;;7.30;85.00;;;;;;5027793;28;20456;-67
2021/04/15 12:31:37;;;;;;;5.87;3.57;;;7.40;85.00;;;;;;5027699;28;20458;-67
2021/04/15 12:34:38;;;;;;;7.57;3.90;;;7.40;86.30;;;;;;5027542;28;20515;-67
2021/04/15 12:37:25;;;;;;;4.77;4.37;;;7.20;86.80;;;;;;5017126;28;20823;-66
2021/04/15 12:40:20;;;;;;;4.73;4.17;;;7.20;87.70;;;;;;5027650;28;20921;-66
2021/04/15 12:42:56;;;;;;;5.37;4.03;;;7.20;89.90;;;;;;5027361;28;20462;-67
2021/04/15 12:45:29;;;;;;;3.63;3.33;;;7.30;89.60;;;;;;5028172;28;20432;-66
2021/04/15 12:47:59;;;;;;;4.20;3.50;;;7.40;89.90;;;;;;5031255;28;20469;-66
2021/04/15 12:50:34;;;;;;;4.90;3.93;;;7.30;90.80;;;;;;5030748;28;20925;-67
2021/04/15 12:53:08;;;;;;;5.10;4.20;;;7.30;91.70;;;;;;5038456;28;20518;-67
2021/04/15 12:55:46;;;;;;;3.60;3.30;;;7.30;91.70;;;;;;5037623;28;20855;-66
2021/04/15 12:58:18;;;;;;;4.60;4.20;;;7.90;93.50;;;;;;5050896;28;20436;-67
2021/04/15 13:00:53;;;;;;;4.07;3.67;;;8.20;91.90;;;;;;5050983;28;20503;-66
2021/04/15 13:03:30;;;;;;;5.20;4.00;;;8.00;90.80;;;;;;5050352;28;20458;-67
2021/04/15 13:06:09;;;;;;;4.80;3.80;;;7.70;89.00;;;;;;5050906;28;20430;-67
2021/04/15 13:08:53;;;;;;;9.03;3.70;;;8.30;89.40;;;;;;5050485;28;20434;-68
2021/04/15 13:11:50;;;;;;;3.87;3.43;;;8.80;90.20;;;;;;5050947;28;20437;-67
2021/04/15 13:14:41;;;;;;;3.80;3.40;;;9.40;91.50;;;;;;5037901;27;20461;-66
2021/04/15 13:17:13;;;;;;;4.50;3.50;;;9.70;88.80;;;;;;5030792;28;20514;-67
2021/04/15 13:19:56;;;;;;;5.00;3.57;;;9.70;85.10;;;;;;5030581;28;20428;-67
2021/04/15 13:22:38;;;;;;;4.53;4.03;;;9.70;85.10;;;;;;5029027;28;20802;-69
2021/04/15 13:25:15;;;;;;;5.63;3.63;;;9.80;83.60;;;;;;5030559;28;20480;-67
2021/04/15 13:28:12;;;;;;;4.40;3.27;;;9.90;86.00;;;;;;5030600;28;20482;-70
2021/04/15 13:31:09;;;;;;;5.70;4.10;;;10.40;84.40;;;;;;5030604;28;20420;-67
2021/04/15 13:34:00;;;;;;;3.90;3.53;;;10.80;82.00;;;;;;5030402;28;20951;-68
2021/04/15 13:36:27;;;;;;;3.50;3.20;;;10.90;79.10;;;;;;5030858;28;20515;-66
2021/04/15 13:39:14;;;;;;;3.90;3.30;;;10.90;78.20;;;;;;5030261;28;20447;-68
2021/04/15 13:41:56;;;;;;;4.60;3.50;;;10.70;83.00;;;;;;5018146;27;20988;-67
2021/04/15 13:45:02;;;;;;;4.73;4.00;;;10.00;80.40;;;;;;5030025;28;20438;-67
2021/04/15 13:47:57;;;;;;;6.20;4.10;;;9.30;84.50;;;;;;5015350;27;20966;-67
2021/04/15 13:51:15;;;;;;;9.50;3.80;;;8.80;85.30;;;;;;4995016;27;20435;-67